Time;durP1;ratioP1;P1;durP2;ratioP2;P2;SDS_P1;SDS_P2;PMS_P1;PMS_P2;Temp;Humidity;BMP_temperature;BMP_pressure;BME280_temperature;BME280_humidity;BME280_pressure;Samples;Min_cycle;Max_cycle;Signal;HPM_P1;HPM_P2
2022/04/12 00:01:07;;;;;;;0.13;0.13;;;10.10;99.90;;;;;;5032238;28;20026;-63
2022/04/12 00:03:33;;;;;;;0.20;0.20;;;9.90;99.90;;;;;;5031600;28;20021;-63
2022/04/12 00:05:59;;;;;;;4.65;1.02;;;10.10;99.90;;;;;;5032979;28;20535;-64
2022/04/12 00:08:26;;;;;;;6.60;2.58;;;10.20;99.90;;;;;;5015018;28;20238;-64
2022/04/12 00:10:51;;;;;;;0.10;0.10;;;9.90;99.90;;;;;;5032872;28;20030;-63
2022/04/12 00:13:18;;;;;;;0.00;0.00;;;9.60;99.90;;;;;;5032966;28;20034;-64
2022/04/12 00:15:44;;;;;;;0.00;0.00;;;9.50;99.90;;;;;;5031911;28;20037;-64
2022/04/12 00:20:55;;;;;;;0.25;0.25;;;9.70;99.90;;;;;;5033201;28;20029;-64
2022/04/12 00:23:22;;;;;;;0.15;0.15;;;9.30;99.90;;;;;;5032972;28;20065;-64
2022/04/12 00:25:47;;;;;;;0.32;0.30;;;9.30;99.90;;;;;;5014737;28;20539;-64
2022/04/12 00:28:15;;;;;;;0.10;0.10;;;9.30;99.90;;;;;;5031261;28;20041;-63
2022/04/12 00:30:42;;;;;;;0.05;0.05;;;9.30;99.90;;;;;;5031612;28;20033;-63
2022/04/12 00:33:08;;;;;;;0.47;0.47;;;8.80;99.90;;;;;;5031489;28;20052;-63
2022/04/12 00:35:34;;;;;;;0.00;0.00;;;8.30;99.90;;;;;;5032394;28;20445;-64
2022/04/12 00:38:00;;;;;;;0.00;0.00;;;8.50;99.90;;;;;;5032267;28;20041;-65
2022/04/12 00:40:26;;;;;;;1.30;1.20;;;8.60;99.90;;;;;;5031276;28;20026;-64
2022/04/12 00:42:53;;;;;;;0.28;0.28;;;8.70;99.90;;;;;;5032713;28;20037;-64
2022/04/12 00:45:20;;;;;;;0.00;0.00;;;8.90;99.90;;;;;;5046694;28;20116;-64
2022/04/12 00:47:46;;;;;;;0.10;0.10;;;9.10;99.90;;;;;;5031726;28;20124;-64
2022/04/12 00:50:13;;;;;;;0.50;0.50;;;9.20;99.90;;;;;;5031344;28;20443;-64
2022/04/12 00:52:44;;;;;;;0.80;0.80;;;9.30;99.90;;;;;;5030813;28;20045;-64
2022/04/12 00:55:11;;;;;;;1.20;1.10;;;9.10;99.90;;;;;;5030730;28;20095;-64
2022/04/12 00:57:38;;;;;;;0.65;0.65;;;8.60;99.90;;;;;;5013966;28;20033;-64
2022/04/12 01:00:08;;;;;;;0.17;0.17;;;8.70;99.90;;;;;;5031062;28;20084;-63
2022/04/12 01:02:34;;;;;;;0.00;0.00;;;8.80;99.90;;;;;;5036707;23;20049;-63
2022/04/12 01:05:02;;;;;;;0.20;0.20;;;8.90;99.90;;;;;;5003980;28;20022;-64
2022/04/12 01:07:29;;;;;;;0.40;0.40;;;8.90;99.90;;;;;;5012500;28;20109;-65
2022/04/12 01:09:57;;;;;;;0.20;0.20;;;9.00;99.90;;;;;;5012898;28;20061;-63
2022/04/12 01:12:23;;;;;;;1.40;0.57;;;9.10;99.90;;;;;;5010431;28;20517;-64
2022/04/12 01:14:49;;;;;;;0.57;0.57;;;9.10;99.90;;;;;;5006518;28;20023;-63
2022/04/12 01:17:15;;;;;;;0.10;0.10;;;9.10;99.90;;;;;;4991796;28;20080;-64
2022/04/12 01:19:41;;;;;;;2.72;2.40;;;9.00;99.90;;;;;;4991042;28;20022;-64
2022/04/12 01:22:21;;;;;;;0.10;0.10;;;9.00;99.90;;;;;;4991169;28;20042;-63
2022/04/12 01:24:47;;;;;;;0.22;0.22;;;8.90;99.90;;;;;;5009090;28;20034;-64
2022/04/12 01:27:12;;;;;;;0.20;0.20;;;8.50;99.90;;;;;;4990850;28;20031;-63
2022/04/12 01:29:38;;;;;;;0.10;0.10;;;8.40;99.90;;;;;;4992536;28;20054;-64
2022/04/12 01:32:08;;;;;;;0.20;0.20;;;8.60;99.90;;;;;;4990503;28;20438;-64
2022/04/12 01:34:37;;;;;;;0.20;0.20;;;8.70;99.90;;;;;;4990731;28;20506;-63
2022/04/12 01:37:03;;;;;;;1.95;1.40;;;8.80;99.90;;;;;;4990207;28;20030;-63
2022/04/12 01:39:30;;;;;;;0.10;0.10;;;8.70;99.90;;;;;;4990394;28;20023;-63
2022/04/12 01:41:57;;;;;;;3.63;1.00;;;8.70;99.90;;;;;;4990321;28;20077;-63
2022/04/12 01:44:22;;;;;;;1.38;1.27;;;8.80;99.90;;;;;;4991773;28;20032;-63
2022/04/12 01:46:48;;;;;;;0.00;0.00;;;8.80;99.90;;;;;;4990534;28;20117;-65
2022/04/12 01:49:17;;;;;;;0.00;0.00;;;8.00;99.90;;;;;;4990851;28;20030;-65
2022/04/12 01:51:43;;;;;;;0.43;0.43;;;8.10;99.90;;;;;;4991394;28;20069;-64
2022/04/12 01:54:09;;;;;;;0.00;0.00;;;7.80;99.90;;;;;;4991711;28;20096;-63
2022/04/12 01:56:35;;;;;;;0.17;0.17;;;7.80;99.90;;;;;;4990775;28;20031;-63
2022/04/12 01:59:02;;;;;;;0.03;0.03;;;8.00;99.90;;;;;;4991551;28;20023;-65
2022/04/12 02:01:29;;;;;;;0.10;0.10;;;8.20;99.90;;;;;;4990166;28;20126;-64
2022/04/12 02:03:55;;;;;;;0.22;0.22;;;8.20;99.90;;;;;;4991227;28;20145;-64
2022/04/12 02:06:21;;;;;;;1.55;0.70;;;8.10;99.90;;;;;;4991366;28;20030;-63
2022/04/12 02:08:47;;;;;;;0.10;0.10;;;8.10;99.90;;;;;;4991452;28;20470;-64
2022/04/12 02:11:13;;;;;;;0.38;0.38;;;7.80;99.90;;;;;;4991526;28;20065;-64
2022/04/12 02:13:39;;;;;;;0.20;0.20;;;7.70;99.90;;;;;;4990146;28;20030;-63
2022/04/12 02:16:05;;;;;;;1.00;1.00;;;7.50;99.90;;;;;;5007776;28;20125;-65
2022/04/12 02:18:32;;;;;;;0.95;0.80;;;7.20;99.90;;;;;;4993007;28;20034;-63
2022/04/12 02:21:00;;;;;;;0.20;0.20;;;7.10;99.90;;;;;;5010595;28;20026;-63
2022/04/12 02:23:26;;;;;;;0.20;0.20;;;7.20;99.90;;;;;;5010732;28;20041;-64
2022/04/12 02:25:52;;;;;;;2.17;1.10;;;7.30;99.90;;;;;;5001577;28;20030;-64
2022/04/12 02:28:17;;;;;;;0.10;0.10;;;7.40;99.90;;;;;;4989484;28;20037;-63
2022/04/12 02:30:46;;;;;;;0.10;0.10;;;7.50;99.90;;;;;;4991356;28;20121;-64
2022/04/12 02:33:12;;;;;;;0.73;0.73;;;7.60;99.90;;;;;;4991378;28;20153;-64
2022/04/12 02:35:38;;;;;;;0.25;0.20;;;7.60;99.90;;;;;;4991236;28;20105;-64
2022/04/12 02:38:04;;;;;;;0.52;0.30;;;7.70;99.90;;;;;;4989320;28;20034;-64
2022/04/12 02:40:29;;;;;;;0.20;0.20;;;7.80;99.90;;;;;;4990855;28;20106;-64
2022/04/12 02:42:55;;;;;;;0.20;0.20;;;7.90;99.90;;;;;;4989441;28;20030;-64
2022/04/12 02:45:21;;;;;;;0.55;0.38;;;7.90;99.90;;;;;;4991056;28;20034;-64
2022/04/12 02:47:46;;;;;;;0.00;0.00;;;7.90;99.90;;;;;;4990446;28;20033;-64
2022/04/12 02:50:12;;;;;;;0.28;0.28;;;7.90;99.90;;;;;;4989907;28;20037;-64
2022/04/12 02:52:38;;;;;;;0.10;0.10;;;7.90;99.90;;;;;;4991115;28;20175;-64
2022/04/12 02:55:05;;;;;;;0.38;0.35;;;8.00;99.90;;;;;;4989804;28;20057;-63
2022/04/12 02:57:31;;;;;;;2.80;1.80;;;8.00;99.90;;;;;;4989200;28;20540;-64
2022/04/12 02:59:56;;;;;;;0.22;0.22;;;7.90;99.90;;;;;;5006112;28;20027;-64
2022/04/12 03:02:22;;;;;;;0.10;0.10;;;7.80;99.90;;;;;;4988720;28;20031;-63
2022/04/12 03:04:48;;;;;;;0.15;0.15;;;7.80;99.90;;;;;;4974107;28;20542;-63
2022/04/12 03:07:14;;;;;;;0.20;0.20;;;7.80;99.90;;;;;;4991546;28;20113;-64
2022/04/12 03:09:41;;;;;;;0.10;0.10;;;7.80;99.90;;;;;;4997454;28;20026;-63
2022/04/12 03:12:08;;;;;;;0.10;0.10;;;7.70;99.90;;;;;;4987837;28;20107;-64
2022/04/12 03:14:34;;;;;;;0.00;0.00;;;7.70;99.90;;;;;;5008611;28;20038;-64
2022/04/12 03:16:59;;;;;;;0.10;0.10;;;7.70;99.90;;;;;;5008829;28;20037;-64
2022/04/12 03:19:25;;;;;;;2.17;1.58;;;7.70;99.90;;;;;;5012971;28;20109;-64
2022/04/12 03:21:51;;;;;;;0.00;0.00;;;7.70;99.90;;;;;;5012708;28;20032;-64
2022/04/12 03:24:17;;;;;;;0.47;0.47;;;7.70;99.90;;;;;;5007068;28;20414;-64
2022/04/12 03:26:42;;;;;;;0.00;0.00;;;7.50;99.90;;;;;;4993857;28;20535;-64
2022/04/12 03:29:09;;;;;;;0.00;0.00;;;7.20;99.90;;;;;;4994090;28;20092;-64
2022/04/12 03:31:35;;;;;;;0.20;0.20;;;7.30;99.90;;;;;;4994084;28;20460;-64
2022/04/12 03:34:01;;;;;;;0.10;0.10;;;7.30;99.90;;;;;;4994299;28;20057;-65
2022/04/12 03:36:27;;;;;;;0.40;0.40;;;7.40;99.90;;;;;;4994160;28;20367;-64
2022/04/12 03:38:52;;;;;;;0.40;0.40;;;7.40;99.90;;;;;;4994466;28;20038;-64
2022/04/12 03:41:23;;;;;;;0.08;0.08;;;7.40;99.90;;;;;;4996249;28;20308;-64
2022/04/12 03:43:51;;;;;;;1.08;0.52;;;7.40;99.90;;;;;;5013127;28;20032;-64
2022/04/12 03:46:17;;;;;;;0.00;0.00;;;7.40;99.90;;;;;;5007420;28;20091;-64
2022/04/12 03:48:43;;;;;;;1.55;1.35;;;7.40;99.90;;;;;;4994836;28;20092;-64
2022/04/12 03:51:10;;;;;;;0.25;0.25;;;7.40;99.90;;;;;;4992780;28;20158;-64
2022/04/12 03:53:39;;;;;;;0.40;0.40;;;7.40;99.90;;;;;;4979014;28;20081;-64
2022/04/12 03:56:09;;;;;;;0.20;0.20;;;7.40;99.90;;;;;;4968203;28;20037;-64
2022/04/12 03:58:38;;;;;;;0.13;0.13;;;7.40;99.90;;;;;;5001737;28;20053;-64
2022/04/12 04:01:05;;;;;;;0.98;0.98;;;7.40;99.90;;;;;;5001016;28;20057;-65
2022/04/12 04:03:31;;;;;;;0.08;0.08;;;7.30;99.90;;;;;;5002984;28;20041;-65
2022/04/12 04:05:57;;;;;;;0.10;0.10;;;7.30;99.90;;;;;;5000528;28;20084;-65
2022/04/12 04:08:23;;;;;;;0.13;0.13;;;7.30;99.90;;;;;;5001686;28;20687;-64
2022/04/12 04:10:49;;;;;;;0.15;0.15;;;7.30;99.90;;;;;;4998461;28;20038;-64
2022/04/12 04:13:17;;;;;;;1.52;1.08;;;7.20;99.90;;;;;;4993332;28;20402;-64
2022/04/12 04:15:43;;;;;;;0.43;0.43;;;7.20;99.90;;;;;;5000383;28;20556;-64
2022/04/12 04:18:08;;;;;;;0.00;0.00;;;7.20;99.90;;;;;;4992751;28;20137;-63
2022/04/12 04:20:34;;;;;;;0.20;0.20;;;7.20;99.90;;;;;;4992847;28;20475;-63
2022/04/12 04:23:01;;;;;;;0.20;0.20;;;7.10;99.90;;;;;;4991770;28;20489;-64
2022/04/12 04:25:27;;;;;;;0.25;0.25;;;7.10;99.90;;;;;;4993379;28;20050;-64
2022/04/12 04:27:53;;;;;;;0.88;0.82;;;7.10;99.90;;;;;;4991535;28;20031;-64
2022/04/12 04:30:19;;;;;;;0.73;0.73;;;7.10;99.90;;;;;;4993252;28;20099;-64
2022/04/12 04:32:46;;;;;;;0.43;0.40;;;7.00;99.90;;;;;;4992739;28;20486;-64
2022/04/12 04:35:12;;;;;;;1.67;1.55;;;7.00;99.90;;;;;;4991428;28;20026;-64
2022/04/12 04:37:49;;;;;;;0.43;0.43;;;7.10;99.90;;;;;;5010855;28;20083;-65
2022/04/12 04:40:17;;;;;;;0.00;0.00;;;7.00;99.90;;;;;;5012789;28;20030;-65
2022/04/12 04:42:44;;;;;;;0.03;0.03;;;7.00;99.90;;;;;;5010828;28;20025;-65
2022/04/12 04:45:12;;;;;;;0.32;0.32;;;6.90;99.90;;;;;;5011867;28;20041;-65
2022/04/12 04:47:53;;;;;;;0.10;0.10;;;7.00;99.90;;;;;;5011652;28;20029;-63
2022/04/12 04:50:21;;;;;;;0.10;0.10;;;7.00;99.90;;;;;;4995017;28;20034;-64
2022/04/12 04:52:48;;;;;;;0.30;0.30;;;7.10;99.90;;;;;;4992569;28;20169;-64
2022/04/12 04:55:14;;;;;;;0.40;0.40;;;7.00;99.90;;;;;;4991195;28;20052;-64
2022/04/12 04:57:42;;;;;;;0.45;0.45;;;7.00;99.90;;;;;;4990560;28;20030;-64
2022/04/12 05:00:15;;;;;;;2.67;1.05;;;7.00;99.90;;;;;;4992002;28;20030;-63
2022/04/12 05:02:50;;;;;;;3.20;1.40;;;7.00;99.90;;;;;;4990929;28;20035;-64
2022/04/12 05:05:17;;;;;;;2.35;2.00;;;7.00;99.90;;;;;;5008755;28;20375;-64
2022/04/12 05:07:46;;;;;;;0.40;0.40;;;7.00;99.90;;;;;;5011360;28;20026;-64
2022/04/12 05:10:18;;;;;;;0.90;0.90;;;7.00;99.90;;;;;;4993958;28;20076;-64
2022/04/12 05:12:44;;;;;;;1.10;1.05;;;7.00;99.90;;;;;;4983216;28;20554;-64
2022/04/12 05:15:11;;;;;;;0.20;0.20;;;7.10;99.90;;;;;;4994015;28;20030;-64
2022/04/12 05:17:37;;;;;;;1.10;0.82;;;7.10;99.90;;;;;;4991389;28;20066;-64
2022/04/12 05:20:07;;;;;;;0.28;0.28;;;7.10;99.90;;;;;;4995359;28;20144;-64
2022/04/12 05:22:38;;;;;;;0.22;0.22;;;7.10;99.90;;;;;;4990721;28;20400;-65
2022/04/12 05:25:04;;;;;;;4.63;0.88;;;7.10;99.90;;;;;;4991524;28;20033;-63
2022/04/12 05:27:37;;;;;;;0.20;0.20;;;7.10;99.90;;;;;;4991196;28;20132;-64
2022/04/12 05:30:10;;;;;;;0.43;0.43;;;7.10;99.90;;;;;;4991515;28;20070;-65
2022/04/12 05:32:37;;;;;;;0.10;0.10;;;7.10;99.90;;;;;;4973647;28;20389;-65
2022/04/12 05:35:05;;;;;;;0.25;0.25;;;7.10;99.90;;;;;;4991573;28;20525;-64
2022/04/12 05:37:33;;;;;;;0.10;0.10;;;7.20;99.90;;;;;;4991238;28;20030;-66
2022/04/12 05:40:05;;;;;;;0.10;0.10;;;7.20;99.90;;;;;;4991438;28;20054;-65
2022/04/12 05:42:31;;;;;;;0.55;0.55;;;7.20;99.90;;;;;;4992004;28;20022;-64
2022/04/12 05:44:57;;;;;;;0.10;0.10;;;7.30;99.90;;;;;;4991565;28;20030;-64
2022/04/12 05:47:23;;;;;;;0.98;0.75;;;7.30;99.90;;;;;;4991101;28;20397;-64
2022/04/12 05:49:48;;;;;;;0.52;0.52;;;7.30;99.90;;;;;;4985698;28;20077;-64
2022/04/12 05:52:16;;;;;;;2.45;1.48;;;7.30;99.90;;;;;;5011270;28;20053;-64
2022/04/12 05:54:42;;;;;;;1.35;0.98;;;7.40;99.90;;;;;;4992257;28;20037;-64
2022/04/12 05:57:08;;;;;;;0.00;0.00;;;7.40;99.90;;;;;;4997935;28;20031;-63
2022/04/12 05:59:36;;;;;;;0.05;0.05;;;7.50;99.90;;;;;;4991420;28;20064;-63
2022/04/12 06:02:02;;;;;;;0.30;0.30;;;7.60;99.90;;;;;;4990669;28;20042;-64
2022/04/12 06:04:28;;;;;;;0.00;0.00;;;7.70;99.90;;;;;;4991246;28;20136;-64
2022/04/12 06:06:54;;;;;;;0.93;0.68;;;7.70;99.90;;;;;;4973662;28;20053;-64
2022/04/12 06:09:19;;;;;;;0.10;0.10;;;7.80;99.90;;;;;;4991553;28;20080;-64
2022/04/12 06:11:45;;;;;;;4.72;2.63;;;7.90;99.90;;;;;;4991399;28;20423;-64
2022/04/12 06:14:11;;;;;;;35.03;3.22;;;8.00;99.90;;;;;;4991114;28;20031;-63
2022/04/12 06:16:37;;;;;;;0.10;0.10;;;8.00;99.90;;;;;;5005251;28;20034;-64
2022/04/12 06:19:02;;;;;;;0.57;0.57;;;8.10;99.90;;;;;;5010615;28;20030;-64
2022/04/12 06:21:28;;;;;;;0.10;0.10;;;8.20;99.90;;;;;;4993039;28;20034;-62
2022/04/12 06:23:54;;;;;;;0.52;0.52;;;8.30;99.90;;;;;;4993150;28;20069;-62
2022/04/12 06:26:28;;;;;;;0.40;0.40;;;8.40;99.90;;;;;;5010702;28;20033;-62
2022/04/12 06:28:54;;;;;;;1.85;0.57;;;8.40;99.90;;;;;;5010442;28;20045;-62
2022/04/12 06:31:20;;;;;;;0.85;0.43;;;8.50;99.90;;;;;;4995117;28;20034;-62
2022/04/12 06:33:45;;;;;;;0.50;0.50;;;8.60;99.90;;;;;;4990845;28;20379;-64
2022/04/12 06:36:17;;;;;;;0.40;0.20;;;8.60;99.90;;;;;;4957153;28;20514;-65
2022/04/12 06:38:57;;;;;;;0.00;0.00;;;8.70;99.90;;;;;;4990748;28;20070;-64
2022/04/12 06:41:24;;;;;;;0.55;0.55;;;8.80;99.90;;;;;;4990425;28;20073;-65
2022/04/12 06:43:50;;;;;;;0.20;0.20;;;8.90;99.90;;;;;;4990483;28;20445;-64
2022/04/12 06:46:15;;;;;;;0.30;0.30;;;9.00;99.90;;;;;;4974830;28;20117;-64
2022/04/12 06:48:41;;;;;;;0.88;0.85;;;9.10;99.90;;;;;;4994120;28;20106;-64
2022/04/12 06:51:07;;;;;;;0.20;0.20;;;9.20;99.90;;;;;;4991871;28;20018;-64
2022/04/12 06:53:34;;;;;;;0.00;0.00;;;9.20;99.90;;;;;;4990214;28;20026;-64
2022/04/12 06:56:00;;;;;;;0.40;0.40;;;9.40;99.90;;;;;;5008594;28;20502;-64
2022/04/12 06:58:26;;;;;;;0.65;0.52;;;9.60;99.90;;;;;;5008401;28;20061;-64
2022/04/12 07:00:51;;;;;;;0.77;0.73;;;9.60;99.90;;;;;;5006946;28;20053;-64
2022/04/12 07:03:17;;;;;;;0.30;0.30;;;9.70;99.90;;;;;;5022674;23;20065;-60
2022/04/12 07:05:43;;;;;;;0.25;0.25;;;9.80;99.90;;;;;;5019400;28;20121;-61
2022/04/12 07:08:11;;;;;;;0.45;0.45;;;10.00;99.90;;;;;;4992010;28;20045;-62
2022/04/12 07:10:36;;;;;;;0.93;0.63;;;10.00;99.90;;;;;;5010170;28;20409;-62
2022/04/12 07:13:02;;;;;;;0.30;0.30;;;10.10;99.90;;;;;;5010063;28;20026;-62
2022/04/12 07:15:28;;;;;;;0.00;0.00;;;10.30;99.90;;;;;;5012382;28;20041;-62
2022/04/12 07:17:54;;;;;;;1.60;1.50;;;10.30;99.90;;;;;;4990088;28;20034;-62
2022/04/12 07:20:22;;;;;;;0.08;0.08;;;10.40;99.90;;;;;;5023323;28;20026;-62
2022/04/12 07:22:48;;;;;;;0.10;0.10;;;10.50;99.90;;;;;;5030197;28;20028;-61
2022/04/12 07:25:13;;;;;;;0.85;0.85;;;10.60;99.90;;;;;;5028517;28;20025;-61
2022/04/12 07:27:39;;;;;;;0.30;0.30;;;10.70;99.90;;;;;;5011893;28;20041;-62
2022/04/12 07:30:07;;;;;;;0.75;0.75;;;10.90;99.90;;;;;;5007047;28;20107;-61
2022/04/12 07:32:33;;;;;;;0.00;0.00;;;10.90;99.90;;;;;;5010161;28;20044;-62
2022/04/12 07:34:59;;;;;;;0.40;0.40;;;11.00;99.90;;;;;;5010049;28;20042;-61
2022/04/12 07:37:25;;;;;;;4.45;1.27;;;11.10;99.90;;;;;;5009836;28;20397;-62
2022/04/12 07:39:50;;;;;;;3.40;1.25;;;11.20;99.90;;;;;;5010406;28;20409;-62
2022/04/12 07:42:16;;;;;;;2.08;1.10;;;11.30;99.90;;;;;;5010091;28;20036;-62
2022/04/12 07:44:42;;;;;;;1.77;0.45;;;11.30;99.90;;;;;;5010140;28;20018;-61
2022/04/12 07:47:08;;;;;;;0.45;0.45;;;11.40;99.90;;;;;;4992459;28;20375;-62
2022/04/12 07:49:34;;;;;;;0.05;0.05;;;11.50;99.90;;;;;;5009002;28;20037;-62
2022/04/12 07:52:00;;;;;;;1.00;0.98;;;11.60;99.90;;;;;;5029706;28;20075;-62
2022/04/12 07:54:26;;;;;;;0.40;0.40;;;11.60;99.90;;;;;;5030063;28;20072;-61
2022/04/12 07:56:51;;;;;;;4.97;2.83;;;11.80;99.90;;;;;;5032980;28;20033;-62
2022/04/12 07:59:17;;;;;;;0.20;0.20;;;11.90;99.90;;;;;;5015355;28;20034;-61
2022/04/12 08:01:43;;;;;;;0.32;0.32;;;11.90;99.90;;;;;;5004531;28;20029;-61
2022/04/12 08:04:09;;;;;;;0.13;0.13;;;11.90;99.90;;;;;;5012183;28;20037;-62
2022/04/12 08:06:35;;;;;;;1.23;1.10;;;12.00;99.90;;;;;;5013004;28;20037;-62
2022/04/12 08:09:00;;;;;;;0.60;0.57;;;12.20;99.90;;;;;;5013429;28;20493;-62
2022/04/12 08:11:26;;;;;;;1.40;0.90;;;12.30;99.90;;;;;;5013290;28;20068;-62
2022/04/12 08:13:53;;;;;;;3.70;1.02;;;12.30;99.60;;;;;;5013164;28;20026;-62
2022/04/12 08:16:19;;;;;;;1.38;1.27;;;12.50;99.90;;;;;;5016386;28;20062;-62
2022/04/12 08:18:46;;;;;;;0.10;0.10;;;12.60;99.60;;;;;;5016565;28;20057;-62
2022/04/12 08:21:11;;;;;;;0.43;0.43;;;12.70;99.70;;;;;;5033065;28;20108;-62
2022/04/12 08:23:37;;;;;;;2.22;1.60;;;12.60;99.90;;;;;;5032582;28;20569;-62
2022/04/12 08:26:03;;;;;;;0.93;0.90;;;12.90;99.90;;;;;;5015033;28;20025;-62
2022/04/12 08:28:29;;;;;;;1.80;1.60;;;13.00;99.30;;;;;;5032347;28;20067;-61
2022/04/12 08:30:54;;;;;;;0.45;0.45;;;13.30;98.60;;;;;;5020771;28;20512;-62
2022/04/12 08:33:20;;;;;;;0.20;0.20;;;13.30;98.20;;;;;;5012980;28;20029;-62
2022/04/12 08:35:46;;;;;;;0.13;0.13;;;13.40;98.90;;;;;;5012874;28;20034;-62
2022/04/12 08:38:12;;;;;;;1.40;1.30;;;13.50;98.90;;;;;;5012388;28;20437;-62
2022/04/12 08:40:40;;;;;;;0.43;0.43;;;13.70;98.20;;;;;;4994973;28;20621;-62
2022/04/12 08:43:07;;;;;;;1.15;1.08;;;13.80;97.80;;;;;;4995066;28;20033;-62
2022/04/12 08:45:36;;;;;;;0.00;0.00;;;13.90;96.80;;;;;;5012408;28;20052;-62
2022/04/12 08:48:05;;;;;;;1.23;1.13;;;14.10;97.10;;;;;;5010999;28;20057;-62
2022/04/12 08:50:31;;;;;;;0.30;0.30;;;14.30;96.70;;;;;;5030510;28;20393;-62
2022/04/12 08:52:58;;;;;;;1.10;1.00;;;14.40;96.20;;;;;;5032312;28;20041;-62
2022/04/12 08:55:27;;;;;;;1.15;0.88;;;14.50;96.20;;;;;;5014688;28;20029;-62
2022/04/12 08:57:53;;;;;;;0.80;0.80;;;14.50;96.00;;;;;;5013909;28;20032;-62
2022/04/12 09:00:18;;;;;;;1.88;0.40;;;14.50;95.50;;;;;;5032339;28;20037;-62
2022/04/12 09:02:58;;;;;;;0.28;0.25;;;14.80;95.70;;;;;;5032011;28;20028;-62
2022/04/12 09:05:25;;;;;;;1.08;0.95;;;15.00;95.00;;;;;;5014853;28;20026;-62
2022/04/12 09:07:51;;;;;;;0.63;0.40;;;15.30;95.10;;;;;;5013209;28;20057;-62
2022/04/12 09:10:19;;;;;;;0.52;0.30;;;15.20;94.80;;;;;;5031610;28;20060;-62
2022/04/12 09:12:45;;;;;;;2.60;1.38;;;15.30;93.80;;;;;;5031796;28;20485;-62
2022/04/12 09:15:15;;;;;;;0.10;0.10;;;15.40;94.30;;;;;;5013926;28;20029;-62
2022/04/12 09:17:44;;;;;;;0.57;0.57;;;15.50;94.10;;;;;;4994761;28;20026;-62
2022/04/12 09:20:19;;;;;;;0.85;0.85;;;15.70;94.30;;;;;;5026970;28;20063;-62
2022/04/12 09:22:46;;;;;;;0.05;0.05;;;15.80;93.80;;;;;;5013810;28;20026;-62
2022/04/12 09:25:14;;;;;;;0.10;0.10;;;16.00;93.40;;;;;;5031416;28;20036;-62
2022/04/12 09:27:44;;;;;;;1.40;1.30;;;16.20;92.60;;;;;;5013555;28;20028;-62
2022/04/12 09:30:12;;;;;;;0.90;0.75;;;16.30;92.80;;;;;;5025776;28;20034;-62
2022/04/12 09:32:42;;;;;;;0.10;0.10;;;16.40;93.80;;;;;;5011724;28;20065;-62
2022/04/12 09:35:08;;;;;;;0.20;0.20;;;16.60;92.00;;;;;;5011602;28;20037;-62
2022/04/12 09:37:40;;;;;;;1.25;0.60;;;16.70;91.70;;;;;;5009974;28;20033;-62
2022/04/12 09:40:13;;;;;;;1.83;1.65;;;16.80;92.00;;;;;;5011749;28;20029;-62
2022/04/12 09:42:45;;;;;;;0.10;0.10;;;16.70;91.90;;;;;;5011898;28;20088;-62
2022/04/12 09:45:22;;;;;;;1.30;1.15;;;16.80;91.40;;;;;;5011322;28;20105;-62
2022/04/12 09:47:50;;;;;;;0.90;0.85;;;17.00;91.30;;;;;;4991441;28;20410;-62
2022/04/12 09:50:19;;;;;;;0.00;0.00;;;17.00;91.70;;;;;;5022942;28;20083;-63
2022/04/12 09:53:00;;;;;;;0.55;0.45;;;17.30;92.40;;;;;;5013841;28;20417;-62
2022/04/12 09:55:34;;;;;;;;;;;17.10;91.10;;;;;;5014346;28;20033;-61
2022/04/12 09:58:06;;;;;;;0.08;0.08;;;17.40;90.80;;;;;;5028632;28;19959;-61
2022/04/12 10:00:33;;;;;;;1.17;1.10;;;17.70;91.30;;;;;;5010584;28;20553;-62
2022/04/12 10:03:19;;;;;;;1.70;1.13;;;17.90;90.30;;;;;;5009991;28;20057;-61
2022/04/12 10:05:46;;;;;;;0.50;0.35;;;17.80;90.40;;;;;;5010006;28;20094;-62
2022/04/12 10:08:22;;;;;;;0.70;0.70;;;18.00;86.50;;;;;;5009491;28;20037;-62
2022/04/12 10:10:48;;;;;;;0.00;0.00;;;18.30;86.00;;;;;;5010933;28;20030;-62
2022/04/12 10:13:16;;;;;;;0.80;0.75;;;18.50;86.60;;;;;;5010826;28;20038;-62
2022/04/12 10:15:43;;;;;;;0.10;0.10;;;18.50;87.70;;;;;;5011819;28;20105;-62
2022/04/12 10:18:11;;;;;;;3.08;1.88;;;18.60;85.40;;;;;;5019660;28;20041;-62
2022/04/12 10:20:39;;;;;;;0.60;0.60;;;18.50;84.50;;;;;;5013232;28;20036;-62
2022/04/12 10:23:05;;;;;;;1.33;0.75;;;18.70;83.40;;;;;;5013110;28;20561;-63
2022/04/12 10:25:31;;;;;;;0.63;0.63;;;18.90;84.40;;;;;;5030149;28;20040;-62
2022/04/12 10:27:59;;;;;;;1.77;0.60;;;19.00;84.50;;;;;;5012581;28;20095;-62
2022/04/12 10:30:27;;;;;;;0.75;0.75;;;19.30;84.40;;;;;;5023053;28;20114;-65
2022/04/12 10:33:24;;;;;;;0.17;0.13;;;19.20;84.50;;;;;;5005576;28;20109;-63
2022/04/12 10:35:56;;;;;;;0.68;0.60;;;19.50;83.90;;;;;;5030060;28;20029;-68
2022/04/12 10:38:24;;;;;;;0.38;0.38;;;19.50;81.70;;;;;;5026846;28;20067;-62
2022/04/12 10:40:53;;;;;;;1.35;0.90;;;19.70;82.90;;;;;;5030356;28;20048;-62
2022/04/12 10:43:33;;;;;;;2.55;0.93;;;19.90;82.40;;;;;;4996279;28;20044;-63
2022/04/12 10:46:08;;;;;;;0.00;0.00;;;19.70;81.20;;;;;;4989061;28;20033;-63
2022/04/12 10:48:34;;;;;;;0.40;0.40;;;20.20;79.70;;;;;;5020232;28;20295;-62
2022/04/12 10:51:03;;;;;;;1.00;0.80;;;20.20;78.00;;;;;;5001613;28;20037;-62
2022/04/12 10:53:38;;;;;;;0.55;0.35;;;20.40;80.20;;;;;;5015573;28;20041;-61
2022/04/12 10:56:07;;;;;;;0.57;0.22;;;20.30;78.40;;;;;;5020900;28;20033;-61
2022/04/12 10:58:33;;;;;;;0.10;0.10;;;20.30;80.30;;;;;;5017903;28;20084;-62
2022/04/12 11:00:59;;;;;;;2.10;0.25;;;20.60;79.10;;;;;;5010300;28;20084;-62
2022/04/12 11:03:52;;;;;;;0.45;0.45;;;20.90;75.40;;;;;;5008785;28;20030;-63
2022/04/12 11:06:32;;;;;;;0.17;0.17;;;20.90;75.10;;;;;;5008291;28;20553;-62
2022/04/12 11:09:08;;;;;;;0.15;0.15;;;20.80;75.40;;;;;;5009414;28;20144;-62
2022/04/12 11:11:43;;;;;;;0.43;0.43;;;21.20;74.70;;;;;;5010475;28;20041;-63
2022/04/12 11:14:36;;;;;;;0.28;0.28;;;21.20;74.20;;;;;;5009037;28;20441;-61
2022/04/12 11:17:06;;;;;;;0.30;0.30;;;21.50;72.50;;;;;;5013959;28;20060;-62
2022/04/12 11:19:48;;;;;;;1.65;1.17;;;21.40;72.00;;;;;;5019831;28;20032;-61
2022/04/12 11:22:16;;;;;;;0.00;0.00;;;21.40;71.90;;;;;;5012691;28;20049;-62
2022/04/12 11:24:42;;;;;;;0.57;0.52;;;21.40;70.00;;;;;;5012359;28;20121;-62
2022/04/12 11:27:13;;;;;;;0.13;0.08;;;21.70;71.30;;;;;;5029613;28;20059;-62
2022/04/12 11:29:42;;;;;;;0.15;0.15;;;21.90;69.80;;;;;;5029528;28;20033;-63
2022/04/12 11:32:10;;;;;;;2.00;1.10;;;22.00;71.70;;;;;;5012331;28;20100;-63
2022/04/12 11:34:38;;;;;;;0.20;0.20;;;22.50;71.70;;;;;;5013978;28;20037;-63
2022/04/12 11:37:11;;;;;;;0.70;0.70;;;22.50;68.30;;;;;;5012041;28;20125;-63
2022/04/12 11:39:43;;;;;;;0.00;0.00;;;22.40;69.00;;;;;;4996378;28;20037;-63
2022/04/12 11:42:14;;;;;;;0.00;0.00;;;22.50;68.50;;;;;;5013842;28;20058;-62
2022/04/12 11:44:50;;;;;;;0.00;0.00;;;22.80;70.60;;;;;;5013509;28;20022;-62
2022/04/12 11:47:17;;;;;;;0.00;0.00;;;22.60;68.60;;;;;;4999384;28;20502;-62
2022/04/12 11:49:43;;;;;;;0.00;0.00;;;22.50;66.20;;;;;;5019709;28;20117;-62
2022/04/12 11:52:13;;;;;;;0.10;0.10;;;22.80;67.50;;;;;;4995938;28;20112;-63
2022/04/12 11:54:48;;;;;;;1.90;1.08;;;23.10;65.90;;;;;;5013325;28;20038;-62
2022/04/12 11:57:20;;;;;;;0.10;0.10;;;23.20;65.50;;;;;;4996394;28;20565;-62
2022/04/12 11:59:56;;;;;;;0.00;0.00;;;23.20;63.10;;;;;;4996556;28;20037;-62
2022/04/12 12:02:24;;;;;;;0.43;0.43;;;23.40;62.90;;;;;;5013447;28;20104;-62
2022/04/12 12:04:56;;;;;;;0.00;0.00;;;23.20;63.30;;;;;;5013314;28;20041;-62
2022/04/12 12:07:23;;;;;;;0.00;0.00;;;23.40;61.70;;;;;;5012464;28;20057;-62
2022/04/12 12:09:54;;;;;;;0.00;0.00;;;23.00;62.70;;;;;;5013414;28;20037;-63
2022/04/12 12:12:29;;;;;;;0.05;0.05;;;23.20;62.00;;;;;;4995358;28;20381;-62
2022/04/12 12:14:55;;;;;;;0.00;0.00;;;23.20;62.80;;;;;;5012652;28;20026;-62
2022/04/12 12:17:21;;;;;;;0.10;0.10;;;23.30;60.30;;;;;;5015487;28;20080;-62
2022/04/12 12:19:47;;;;;;;0.00;0.00;;;23.30;62.10;;;;;;5024808;28;20034;-62
2022/04/12 12:22:14;;;;;;;0.22;0.10;;;23.20;61.90;;;;;;5029595;28;20121;-63
2022/04/12 12:24:55;;;;;;;1.27;1.00;;;23.20;60.20;;;;;;4998414;28;20045;-62
2022/04/12 12:27:29;;;;;;;0.00;0.00;;;23.40;62.80;;;;;;4991727;28;20113;-62
2022/04/12 12:30:10;;;;;;;0.00;0.00;;;23.50;62.60;;;;;;4994675;28;20033;-62
2022/04/12 12:32:41;;;;;;;0.32;0.20;;;23.40;60.90;;;;;;5012100;28;20033;-62
2022/04/12 12:35:14;;;;;;;0.00;0.00;;;23.60;60.50;;;;;;5011254;28;20034;-62
2022/04/12 12:37:43;;;;;;;0.00;0.00;;;23.60;60.40;;;;;;5012457;28;20030;-62
2022/04/12 12:40:21;;;;;;;0.00;0.00;;;23.60;60.10;;;;;;5011095;28;20612;-62
2022/04/12 12:42:49;;;;;;;0.00;0.00;;;23.90;58.60;;;;;;5012327;28;20041;-63
2022/04/12 12:45:25;;;;;;;0.10;0.10;;;24.40;60.50;;;;;;5011352;28;20034;-62
2022/04/12 12:47:53;;;;;;;0.40;0.25;;;24.10;59.20;;;;;;4992858;28;20371;-62
2022/04/12 12:50:23;;;;;;;0.15;0.08;;;24.20;60.80;;;;;;5027549;28;20040;-63
2022/04/12 12:52:56;;;;;;;0.05;0.05;;;24.30;59.10;;;;;;5014440;28;20132;-62
2022/04/12 12:55:23;;;;;;;0.00;0.00;;;24.80;57.70;;;;;;5031950;28;20036;-63
2022/04/12 12:57:52;;;;;;;0.10;0.10;;;24.80;59.90;;;;;;5014915;28;20042;-62
2022/04/12 13:00:20;;;;;;;0.00;0.00;;;25.00;59.50;;;;;;5011422;28;20036;-62